Time;durP1;ratioP1;P1;durP2;ratioP2;P2;SDS_P1;SDS_P2;PMS_P1;PMS_P2;Temp;Humidity;BMP_temperature;BMP_pressure;BME280_temperature;BME280_humidity;BME280_pressure;Samples;Min_cycle;Max_cycle;Signal;HPM_P1;HPM_P2
2023/03/29 00:00:31;;;;;;;6.93;2.92;;;;;;;;;;4969877;28;20086;-62
2023/03/29 00:03:13;;;;;;;11.43;3.10;;;;;;;;;;4963129;28;20059;-61
2023/03/29 00:05:41;;;;;;;6.85;3.30;;;;;;;;;;4965657;28;20060;-62
2023/03/29 00:08:17;;;;;;;5.63;3.30;;;;;;;;;;4958895;28;20054;-63
2023/03/29 00:10:48;;;;;;;6.53;3.20;;;;;;;;;;4966852;28;20522;-63
2023/03/29 00:13:21;;;;;;;4.15;1.83;;;;;;;;;;4966761;28;20491;-61
2023/03/29 00:15:56;;;;;;;8.63;3.15;;;;;;;;;;4966703;28;20058;-56
2023/03/29 00:18:23;;;;;;;7.47;3.10;;;;;;;;;;4966535;28;20173;-62
2023/03/29 00:20:57;;;;;;;5.07;2.50;;;;;;;;;;4967179;28;20055;-61
2023/03/29 00:23:25;;;;;;;8.30;3.33;;;;;;;;;;4968964;28;20882;-62
2023/03/29 00:25:53;;;;;;;7.95;2.70;;;;;;;;;;4956142;28;20150;-62
2023/03/29 00:28:27;;;;;;;4.25;2.92;;;;;;;;;;4964293;28;20046;-62
2023/03/29 00:30:54;;;;;;;9.68;2.83;;;;;;;;;;4970571;28;20058;-62
2023/03/29 00:33:28;;;;;;;7.85;3.30;;;;;;;;;;4967671;28;20077;-63
2023/03/29 00:35:55;;;;;;;7.90;3.40;;;;;;;;;;4966930;28;20982;-57
2023/03/29 00:38:22;;;;;;;11.95;3.67;;;;;;;;;;4965353;28;21109;-53
2023/03/29 00:40:57;;;;;;;7.97;3.20;;;;;;;;;;4966424;28;20093;-56
2023/03/29 00:43:24;;;;;;;;;;;;;;;;;;4968309;28;20062;-56
2023/03/29 00:45:59;;;;;;;8.73;3.53;;;;;;;;;;4962867;28;19937;-55
2023/03/29 00:48:26;;;;;;;;;;;;;;;;;;4964219;28;20726;-56
2023/03/29 00:50:56;;;;;;;6.03;3.60;;;;;;;;;;4965666;28;21633;-51
2023/03/29 00:53:36;;;;;;;7.22;3.10;;;;;;;;;;4965939;28;20053;-47
2023/03/29 00:56:10;;;;;;;6.63;3.28;;;;;;;;;;4963888;28;20054;-47
2023/03/29 00:58:50;;;;;;;7.65;3.45;;;;;;;;;;4967306;28;20058;-52
2023/03/29 01:01:24;;;;;;;13.43;3.78;;;;;;;;;;4964579;28;20088;-61
2023/03/29 01:04:01;;;;;;;7.07;3.58;;;;;;;;;;4965021;28;20747;-62
2023/03/29 01:06:32;;;;;;;6.70;3.10;;;;;;;;;;4966203;28;20062;-63
2023/03/29 01:09:09;;;;;;;10.43;3.65;;;;;;;;;;4967211;28;20058;-63
2023/03/29 01:11:41;;;;;;;6.90;3.25;;;;;;;;;;4965477;28;20086;-63
2023/03/29 01:14:37;;;;;;;6.88;3.67;;;;;;;;;;4966220;28;20458;-63
2023/03/29 01:17:15;;;;;;;7.05;3.20;;;;;;;;;;4960177;28;20066;-63
2023/03/29 01:19:45;;;;;;;8.15;4.00;;;;;;;;;;4965292;28;20069;-58
2023/03/29 01:22:27;;;;;;;10.90;3.42;;;;;;;;;;4962895;28;20106;-60
2023/03/29 01:25:10;;;;;;;6.05;3.65;;;;;;;;;;4967865;28;20063;-60
2023/03/29 01:27:54;;;;;;;7.00;3.60;;;;;;;;;;4985068;28;20541;-57
2023/03/29 01:30:48;;;;;;;5.57;2.90;;;;;;;;;;4990556;28;20135;-55
2023/03/29 01:33:24;;;;;;;5.00;2.97;;;;;;;;;;4990735;28;20124;-58
2023/03/29 01:35:52;;;;;;;8.18;3.65;;;;;;;;;;4985887;28;20673;-60
2023/03/29 01:38:26;;;;;;;5.93;3.78;;;;;;;;;;4988463;28;20662;-60
2023/03/29 01:41:02;;;;;;;9.98;3.88;;;;;;;;;;4988943;28;20599;-59
2023/03/29 01:43:44;;;;;;;7.63;3.70;;;;;;;;;;4991012;28;20133;-58
2023/03/29 01:46:34;;;;;;;5.93;3.70;;;;;;;;;;4990464;28;20056;-58
2023/03/29 01:49:12;;;;;;;6.82;3.15;;;;;;;;;;4982656;28;20057;-56
2023/03/29 01:51:51;;;;;;;6.70;3.47;;;;;;;;;;4988732;28;20047;-54
2023/03/29 01:54:47;;;;;;;7.18;3.47;;;;;;;;;;4980896;28;20050;-52
2023/03/29 01:57:23;;;;;;;13.38;4.05;;;;;;;;;;4983314;28;20133;-59
2023/03/29 01:59:58;;;;;;;9.52;4.32;;;;;;;;;;4971765;28;20058;-54
2023/03/29 02:02:28;;;;;;;11.52;4.03;;;;;;;;;;4987150;28;20629;-52
2023/03/29 02:05:02;;;;;;;12.07;3.80;;;;;;;;;;4992806;28;20161;-54
2023/03/29 02:07:31;;;;;;;7.03;4.07;;;;;;;;;;4990241;28;20068;-55
2023/03/29 02:10:06;;;;;;;12.98;4.45;;;;;;;;;;4992492;28;20116;-53
2023/03/29 02:12:34;;;;;;;8.77;3.97;;;;;;;;;;4991880;28;20050;-50
2023/03/29 02:15:02;;;;;;;9.63;4.25;;;;;;;;;;4990547;28;20893;-52
2023/03/29 02:17:36;;;;;;;16.98;5.07;;;;;;;;;;4990547;28;20074;-64
2023/03/29 02:20:13;;;;;;;9.00;4.05;;;;;;;;;;4989339;28;20074;-64
2023/03/29 02:22:50;;;;;;;13.00;4.60;;;;;;;;;;4988903;28;20058;-65
2023/03/29 02:25:24;;;;;;;14.40;4.13;;;;;;;;;;4982578;28;20082;-63
2023/03/29 02:28:06;;;;;;;12.07;4.43;;;;;;;;;;4989705;28;20061;-48
2023/03/29 02:30:41;;;;;;;19.80;5.28;;;;;;;;;;4990451;28;20184;-53
2023/03/29 02:33:24;;;;;;;6.93;3.25;;;;;;;;;;4989829;28;20047;-47
2023/03/29 02:35:53;;;;;;;19.70;5.30;;;;;;;;;;4988258;28;20054;-54
2023/03/29 02:38:28;;;;;;;19.17;5.40;;;;;;;;;;4988239;28;20046;-47
2023/03/29 02:40:55;;;;;;;;;;;;;;;;;;4992202;28;20498;-48
2023/03/29 02:43:23;;;;;;;14.70;4.35;;;;;;;;;;4987316;28;19921;-47
2023/03/29 02:45:57;;;;;;;16.10;4.45;;;;;;;;;;4987069;28;20430;-50
2023/03/29 02:48:26;;;;;;;18.60;5.05;;;;;;;;;;4993977;28;20492;-49
2023/03/29 02:51:01;;;;;;;15.73;5.25;;;;;;;;;;4986872;28;20046;-56
2023/03/29 02:53:32;;;;;;;15.65;6.05;;;;;;;;;;4987527;28;20070;-53
2023/03/29 02:56:06;;;;;;;14.03;6.40;;;;;;;;;;4988415;28;20043;-64
2023/03/29 02:58:35;;;;;;;11.95;4.57;;;;;;;;;;4989514;28;20610;-53
2023/03/29 03:01:10;;;;;;;14.10;5.85;;;;;;;;;;4987959;28;20078;-53
2023/03/29 03:03:50;;;;;;;16.83;5.65;;;;;;;;;;4993890;28;20062;-56
2023/03/29 03:06:25;;;;;;;16.20;5.35;;;;;;;;;;4989078;28;20557;-54
2023/03/29 03:08:52;;;;;;;16.42;5.75;;;;;;;;;;4989665;28;20050;-51
2023/03/29 03:11:20;;;;;;;11.93;4.93;;;;;;;;;;4988550;28;20046;-57
2023/03/29 03:14:00;;;;;;;8.90;4.30;;;;;;;;;;4989205;28;20417;-50
2023/03/29 03:16:27;;;;;;;12.75;4.38;;;;;;;;;;4985070;28;20053;-54
2023/03/29 03:19:02;;;;;;;11.07;3.95;;;;;;;;;;4987234;28;20108;-48
2023/03/29 03:21:29;;;;;;;8.60;4.43;;;;;;;;;;4988262;28;20132;-48
2023/03/29 03:23:57;;;;;;;9.02;3.75;;;;;;;;;;4983368;28;20054;-47
2023/03/29 03:26:45;;;;;;;15.57;4.38;;;;;;;;;;4982324;28;20602;-59
2023/03/29 03:29:18;;;;;;;12.93;4.30;;;;;;;;;;4989766;28;20058;-57
2023/03/29 03:31:53;;;;;;;7.47;3.75;;;;;;;;;;4988369;28;20069;-59
2023/03/29 03:34:21;;;;;;;9.63;3.95;;;;;;;;;;4989624;28;20055;-60
2023/03/29 03:36:49;;;;;;;6.10;3.13;;;;;;;;;;4989808;28;20090;-57
2023/03/29 03:39:22;;;;;;;7.40;3.33;;;;;;;;;;4992088;28;20062;-59
2023/03/29 03:41:50;;;;;;;6.00;3.35;;;;;;;;;;4989907;28;20557;-61
2023/03/29 03:44:24;;;;;;;6.60;3.35;;;;;;;;;;4988453;28;20085;-59
2023/03/29 03:46:51;;;;;;;7.25;4.13;;;;;;;;;;4989174;28;20064;-58
2023/03/29 03:49:18;;;;;;;6.57;3.72;;;;;;;;;;4986149;28;20156;-59
2023/03/29 03:51:52;;;;;;;9.02;3.80;;;;;;;;;;4973588;28;20050;-65
2023/03/29 03:54:19;;;;;;;7.22;4.90;;;;;;;;;;4969635;28;20506;-54
2023/03/29 03:56:53;;;;;;;6.53;3.85;;;;;;;;;;4986737;28;20064;-54
2023/03/29 03:59:21;;;;;;;6.78;3.78;;;;;;;;;;4987338;28;20049;-54
2023/03/29 04:01:48;;;;;;;8.48;4.15;;;;;;;;;;4977114;28;20109;-53
2023/03/29 04:04:22;;;;;;;8.05;3.90;;;;;;;;;;4979606;28;20061;-50
2023/03/29 04:06:50;;;;;;;9.18;4.20;;;;;;;;;;4986017;28;20058;-55
2023/03/29 04:09:17;;;;;;;5.80;3.88;;;;;;;;;;4991361;28;20060;-47
2023/03/29 04:11:51;;;;;;;7.80;4.65;;;;;;;;;;4986395;28;20422;-55
2023/03/29 04:14:19;;;;;;;9.52;5.00;;;;;;;;;;4983476;28;20109;-66
2023/03/29 04:16:55;;;;;;;8.25;5.20;;;;;;;;;;4981571;28;20141;-66
2023/03/29 04:19:23;;;;;;;8.00;4.97;;;;;;;;;;4978004;28;20060;-67
2023/03/29 04:21:50;;;;;;;8.90;4.60;;;;;;;;;;4984040;28;20064;-67
2023/03/29 04:24:24;;;;;;;7.57;4.97;;;;;;;;;;4981998;28;20045;-67
2023/03/29 04:27:04;;;;;;;11.85;5.18;;;;;;;;;;4983023;28;20053;-67
2023/03/29 04:29:38;;;;;;;9.02;5.30;;;;;;;;;;4989599;28;20054;-55
2023/03/29 04:32:05;;;;;;;13.80;5.18;;;;;;;;;;4983125;28;20502;-59
2023/03/29 04:34:32;;;;;;;9.32;5.85;;;;;;;;;;4983904;28;20410;-58
2023/03/29 04:37:09;;;;;;;10.43;6.55;;;;;;;;;;4982243;28;20136;-60
2023/03/29 04:39:37;;;;;;;12.60;6.18;;;;;;;;;;4988359;28;20065;-58
2023/03/29 04:42:05;;;;;;;13.35;6.18;;;;;;;;;;4985780;28;20141;-56
2023/03/29 04:44:41;;;;;;;14.20;7.47;;;;;;;;;;4986891;28;20058;-58
2023/03/29 04:47:12;;;;;;;20.75;8.48;;;;;;;;;;4985119;28;20137;-67
2023/03/29 04:49:46;;;;;;;16.55;8.55;;;;;;;;;;4980970;28;20112;-67
2023/03/29 04:52:13;;;;;;;14.18;7.70;;;;;;;;;;4983482;28;20116;-68
2023/03/29 04:54:40;;;;;;;;;;;;;;;;;;4987159;28;20054;-67
2023/03/29 04:57:14;;;;;;;14.20;8.57;;;;;;;;;;4984488;28;20297;-57
2023/03/29 04:59:41;;;;;;;19.25;10.75;;;;;;;;;;4984069;28;20054;-58
2023/03/29 05:02:15;;;;;;;17.30;9.25;;;;;;;;;;4987441;28;20430;-57
2023/03/29 05:04:42;;;;;;;22.60;10.57;;;;;;;;;;4990739;28;20177;-57
2023/03/29 05:07:10;;;;;;;21.33;9.70;;;;;;;;;;4992320;28;20058;-58
2023/03/29 05:09:44;;;;;;;27.30;10.73;;;;;;;;;;4991147;28;20050;-56
2023/03/29 05:12:11;;;;;;;15.07;9.25;;;;;;;;;;4990708;28;20053;-58
2023/03/29 05:14:38;;;;;;;21.58;11.63;;;;;;;;;;4987747;28;20515;-52
2023/03/29 05:17:12;;;;;;;18.50;9.85;;;;;;;;;;4988762;28;20088;-52
2023/03/29 05:19:46;;;;;;;21.58;11.82;;;;;;;;;;4988813;28;20057;-52
2023/03/29 05:22:14;;;;;;;27.35;13.30;;;;;;;;;;4992062;28;20513;-53
2023/03/29 05:24:41;;;;;;;26.42;11.77;;;;;;;;;;4993026;28;20081;-57
2023/03/29 05:27:21;;;;;;;24.90;12.98;;;;;;;;;;4990309;28;20049;-51
2023/03/29 05:29:49;;;;;;;24.17;12.32;;;;;;;;;;4989083;28;20058;-57
2023/03/29 05:32:23;;;;;;;23.55;13.18;;;;;;;;;;4989653;28;20050;-59
2023/03/29 05:34:50;;;;;;;27.52;13.98;;;;;;;;;;4989061;28;20047;-58
2023/03/29 05:37:17;;;;;;;21.98;12.45;;;;;;;;;;4988988;28;20070;-59
2023/03/29 05:39:52;;;;;;;25.73;13.68;;;;;;;;;;4989489;28;20480;-58
2023/03/29 05:42:31;;;;;;;28.30;12.95;;;;;;;;;;4989039;28;20046;-58
2023/03/29 05:45:05;;;;;;;20.70;11.77;;;;;;;;;;4993199;28;20524;-57
2023/03/29 05:47:32;;;;;;;24.27;13.07;;;;;;;;;;4987645;28;20141;-60
2023/03/29 05:49:59;;;;;;;20.30;12.48;;;;;;;;;;4989718;28;21281;-60
2023/03/29 05:52:34;;;;;;;19.13;11.45;;;;;;;;;;4976521;28;20520;-60
2023/03/29 05:55:01;;;;;;;26.13;13.00;;;;;;;;;;4992228;28;20494;-51
2023/03/29 05:57:36;;;;;;;25.65;13.88;;;;;;;;;;4991558;28;20508;-62
2023/03/29 06:00:18;;;;;;;;;;;;;;;;;;4992009;28;20065;-62
2023/03/29 06:02:52;;;;;;;24.10;13.38;;;;;;;;;;4987145;28;19925;-62
2023/03/29 06:05:19;;;;;;;28.17;13.93;;;;;;;;;;4991613;28;20135;-61
2023/03/29 06:07:50;;;;;;;31.17;14.77;;;;;;;;;;4988358;28;20050;-61
2023/03/29 06:10:25;;;;;;;23.08;14.35;;;;;;;;;;4988519;28;20407;-61
2023/03/29 06:12:52;;;;;;;23.90;14.27;;;;;;;;;;4992891;28;20484;-51
2023/03/29 06:15:26;;;;;;;22.63;13.13;;;;;;;;;;4989821;28;20053;-48
2023/03/29 06:17:53;;;;;;;31.88;14.25;;;;;;;;;;4989239;28;20503;-50
2023/03/29 06:20:20;;;;;;;25.77;14.48;;;;;;;;;;4988238;28;20048;-48
2023/03/29 06:22:57;;;;;;;22.67;13.30;;;;;;;;;;4992248;28;20058;-59
2023/03/29 06:25:24;;;;;;;25.83;14.52;;;;;;;;;;4985440;28;20513;-55
2023/03/29 06:28:04;;;;;;;29.08;15.50;;;;;;;;;;4986891;28;20065;-56
2023/03/29 06:30:32;;;;;;;30.45;14.50;;;;;;;;;;4992558;28;20081;-57
2023/03/29 06:33:06;;;;;;;22.98;13.98;;;;;;;;;;4990346;28;20113;-51
2023/03/29 06:35:34;;;;;;;28.00;15.18;;;;;;;;;;4987892;28;20050;-54
2023/03/29 06:38:02;;;;;;;27.27;16.00;;;;;;;;;;4993457;28;20082;-53
2023/03/29 06:40:39;;;;;;;20.17;12.43;;;;;;;;;;4990314;28;20534;-58
2023/03/29 06:43:06;;;;;;;21.20;13.73;;;;;;;;;;4993616;28;20058;-57
2023/03/29 06:45:40;;;;;;;24.45;14.20;;;;;;;;;;4989879;28;20501;-58
2023/03/29 06:48:07;;;;;;;28.30;15.05;;;;;;;;;;4968386;28;20085;-57
2023/03/29 06:50:34;;;;;;;28.08;14.23;;;;;;;;;;4987242;28;20121;-53
2023/03/29 06:53:09;;;;;;;28.27;15.95;;;;;;;;;;4988185;28;20078;-59
2023/03/29 06:55:36;;;;;;;39.03;18.70;;;;;;;;;;4986720;28;20141;-52
2023/03/29 06:58:03;;;;;;;30.55;16.25;;;;;;;;;;4987894;28;20059;-50
2023/03/29 07:00:38;;;;;;;30.33;15.20;;;;;;;;;;4985745;28;20077;-50
2023/03/29 07:03:06;;;;;;;35.50;17.70;;;;;;;;;;4986855;28;20082;-52
2023/03/29 07:05:41;;;;;;;30.85;17.75;;;;;;;;;;4988108;28;20050;-56
2023/03/29 07:10:39;;;;;;;36.85;18.48;;;;;;;;;;4988350;28;20061;-61
2023/03/29 07:13:14;;;;;;;38.88;18.45;;;;;;;;;;4992399;28;20042;-61
2023/03/29 07:15:42;;;;;;;34.33;18.08;;;;;;;;;;4987966;28;20061;-60
2023/03/29 07:18:17;;;;;;;31.73;17.80;;;;;;;;;;4987871;28;20133;-61
2023/03/29 07:20:46;;;;;;;;;;;;;;;;;;4989409;28;20559;-61
2023/03/29 07:23:13;;;;;;;31.50;15.90;;;;;;;;;;4989190;28;19969;-61
2023/03/29 07:26:01;;;;;;;40.40;18.83;;;;;;;;;;4986114;28;20527;-50
2023/03/29 07:28:36;;;;;;;37.90;17.48;;;;;;;;;;4969508;28;20142;-57
2023/03/29 07:31:11;;;;;;;42.97;18.65;;;;;;;;;;4970939;28;21295;-55
2023/03/29 07:33:38;;;;;;;38.13;16.40;;;;;;;;;;4966081;28;20077;-54
2023/03/29 07:36:06;;;;;;;33.63;17.00;;;;;;;;;;4971525;28;20058;-51
2023/03/29 07:38:40;;;;;;;31.35;16.25;;;;;;;;;;4967142;28;20078;-54
2023/03/29 07:41:07;;;;;;;32.60;17.20;;;;;;;;;;4952960;28;20059;-55
2023/03/29 07:43:42;;;;;;;32.60;17.10;;;;;;;;;;4973040;28;20046;-61
2023/03/29 07:46:09;;;;;;;28.95;16.13;;;;;;;;;;4970086;28;20054;-61
2023/03/29 07:48:37;;;;;;;25.25;14.13;;;;;;;;;;4968016;28;20121;-61
2023/03/29 07:51:11;;;;;;;27.42;13.70;;;;;;;;;;4969310;28;20495;-61
2023/03/29 07:53:38;;;;;;;28.45;14.63;;;;;;;;;;4969662;28;20054;-52
2023/03/29 07:56:12;;;;;;;19.15;11.45;;;;;;;;;;4972291;28;20055;-53
2023/03/29 07:58:39;;;;;;;25.02;13.35;;;;;;;;;;4963354;28;20063;-58
2023/03/29 08:01:07;;;;;;;19.25;11.35;;;;;;;;;;4955294;28;20585;-57
2023/03/29 08:03:44;;;;;;;;;;;;;;;;;;4954555;28;20141;-57
2023/03/29 08:06:12;;;;;;;18.20;10.98;;;;;;;;;;4969349;28;19926;-58
2023/03/29 08:08:46;;;;;;;18.02;9.73;;;;;;;;;;4966074;28;20471;-58
2023/03/29 08:11:14;;;;;;;14.93;9.32;;;;;;;;;;4968035;28;20162;-54
2023/03/29 08:13:41;;;;;;;14.65;9.27;;;;;;;;;;4964623;28;20851;-56
2023/03/29 08:16:15;;;;;;;17.75;10.30;;;;;;;;;;4972565;28;20050;-53
2023/03/29 08:18:42;;;;;;;;;;;;;;;;;;4963649;28;20172;-51
2023/03/29 08:21:16;;;;;;;14.70;8.82;;;;;;;;;;4968203;28;19936;-58
2023/03/29 08:23:50;;;;;;;12.75;8.88;;;;;;;;;;4967162;28;20167;-59
2023/03/29 08:26:36;;;;;;;16.00;9.02;;;;;;;;;;4973074;28;20050;-60
2023/03/29 08:29:11;;;;;;;12.77;8.57;;;;;;;;;;4987864;28;20178;-59
2023/03/29 08:31:45;;;;;;;13.90;8.27;;;;;;;;;;4989485;28;20041;-60
2023/03/29 08:34:12;;;;;;;12.30;7.50;;;;;;;;;;4987809;28;20054;-60
2023/03/29 08:36:40;;;;;;;12.98;8.48;;;;;;;;;;4991979;28;20050;-57
2023/03/29 08:39:14;;;;;;;11.73;8.35;;;;;;;;;;4987121;28;20053;-54
2023/03/29 08:42:09;;;;;;;12.82;8.55;;;;;;;;;;4987763;28;20549;-53
2023/03/29 08:44:59;;;;;;;11.30;8.52;;;;;;;;;;4987475;28;20061;-54
2023/03/29 08:47:29;;;;;;;15.90;9.68;;;;;;;;;;4986837;28;20096;-54
2023/03/29 08:50:04;;;;;;;17.02;8.57;;;;;;;;;;4989116;28;20054;-62
2023/03/29 08:52:40;;;;;;;12.82;8.52;;;;;;;;;;4987698;28;20054;-46
2023/03/29 08:55:13;;;;;;;11.75;8.00;;;;;;;;;;4986026;28;21564;-51
2023/03/29 08:57:48;;;;;;;14.05;8.88;;;;;;;;;;4986027;28;20551;-50
2023/03/29 09:00:31;;;;;;;14.57;8.15;;;;;;;;;;4980740;28;20417;-51
2023/03/29 09:03:10;;;;;;;11.38;7.78;;;;;;;;;;4988050;28;20100;-53
2023/03/29 09:05:41;;;;;;;11.50;7.75;;;;;;;;;;4985984;28;20054;-48
2023/03/29 09:08:16;;;;;;;11.45;7.95;;;;;;;;;;4987636;28;20056;-69
2023/03/29 09:11:01;;;;;;;12.10;7.57;;;;;;;;;;4988824;28;20112;-69
2023/03/29 09:13:42;;;;;;;13.57;8.80;;;;;;;;;;4989294;28;20050;-69
2023/03/29 09:16:21;;;;;;;13.95;9.95;;;;;;;;;;4990219;28;20062;-67
2023/03/29 09:19:00;;;;;;;15.55;9.93;;;;;;;;;;4985039;28;20058;-61
2023/03/29 09:21:41;;;;;;;14.55;10.10;;;;;;;;;;4984944;28;20467;-60
2023/03/29 09:24:26;;;;;;;18.70;9.27;;;;;;;;;;4988124;28;20062;-58
2023/03/29 09:27:21;;;;;;;24.90;12.40;;;;;;;;;;4985700;28;20050;-55
2023/03/29 09:30:12;;;;;;;16.60;10.80;;;;;;;;;;4982748;28;20047;-60
2023/03/29 09:32:48;;;;;;;19.40;10.02;;;;;;;;;;4986578;28;20064;-56
2023/03/29 09:35:24;;;;;;;17.83;10.88;;;;;;;;;;4985259;28;20410;-57
2023/03/29 09:37:59;;;;;;;20.10;11.15;;;;;;;;;;4985529;28;20124;-55
2023/03/29 09:40:26;;;;;;;;;;;;;;;;;;4990825;28;20064;-57
2023/03/29 09:43:03;;;;;;;11.23;8.68;;;;;;;;;;4985146;28;19925;-58
2023/03/29 09:45:30;;;;;;;13.65;9.10;;;;;;;;;;4989726;28;20574;-59
2023/03/29 09:48:08;;;;;;;12.98;8.60;;;;;;;;;;4984434;28;20058;-58
2023/03/29 09:50:40;;;;;;;11.60;8.00;;;;;;;;;;4989712;28;20104;-59
2023/03/29 09:53:15;;;;;;;15.32;7.75;;;;;;;;;;4991607;28;20060;-57
2023/03/29 09:55:43;;;;;;;14.95;9.65;;;;;;;;;;4992834;28;20054;-57
2023/03/29 09:58:22;;;;;;;15.65;11.25;;;;;;;;;;4987903;28;20107;-58
2023/03/29 10:00:50;;;;;;;12.85;8.32;;;;;;;;;;4989791;28;20104;-58
2023/03/29 10:03:26;;;;;;;18.58;9.13;;;;;;;;;;4991339;28;20494;-58
2023/03/29 10:05:55;;;;;;;36.47;8.90;;;;;;;;;;4990462;28;20400;-61
2023/03/29 10:08:26;;;;;;;9.88;7.57;;;;;;;;;;4992769;28;20058;-61
2023/03/29 10:11:00;;;;;;;12.68;8.05;;;;;;;;;;4994362;28;20084;-61
2023/03/29 10:13:29;;;;;;;11.07;8.02;;;;;;;;;;4990113;28;20056;-61
2023/03/29 10:16:06;;;;;;;10.63;7.13;;;;;;;;;;4990825;28;20498;-60
2023/03/29 10:18:38;;;;;;;8.45;6.25;;;;;;;;;;4988915;28;20074;-60
2023/03/29 10:21:14;;;;;;;8.00;5.90;;;;;;;;;;4991152;28;20058;-60
2023/03/29 10:23:42;;;;;;;7.70;5.78;;;;;;;;;;4988034;28;20173;-60
2023/03/29 10:26:37;;;;;;;10.73;6.13;;;;;;;;;;4987351;28;20128;-59
2023/03/29 10:29:12;;;;;;;27.58;6.35;;;;;;;;;;4989405;28;20047;-60
2023/03/29 10:31:41;;;;;;;8.75;6.40;;;;;;;;;;4989390;28;20058;-60
2023/03/29 10:34:16;;;;;;;7.43;5.18;;;;;;;;;;4985249;28;20121;-68
2023/03/29 10:36:47;;;;;;;6.75;4.70;;;;;;;;;;4990499;28;20085;-67
2023/03/29 10:39:21;;;;;;;5.95;4.03;;;;;;;;;;4987196;28;20050;-67
2023/03/29 10:41:55;;;;;;;4.78;3.90;;;;;;;;;;4986223;28;20133;-68
2023/03/29 10:44:31;;;;;;;13.27;4.10;;;;;;;;;;4988479;28;20062;-62
2023/03/29 10:47:11;;;;;;;14.80;3.45;;;;;;;;;;4993440;28;20046;-60
2023/03/29 10:49:51;;;;;;;5.30;2.75;;;;;;;;;;4992386;28;20121;-60
2023/03/29 10:52:21;;;;;;;5.40;2.67;;;;;;;;;;4990066;28;20054;-60
2023/03/29 10:54:56;;;;;;;2.50;1.70;;;;;;;;;;4986879;28;20053;-58
2023/03/29 10:57:36;;;;;;;2.92;2.20;;;;;;;;;;4987702;28;20459;-60
2023/03/29 11:00:13;;;;;;;2.00;1.67;;;;;;;;;;4989459;28;20061;-60
2023/03/29 11:03:03;;;;;;;3.15;1.70;;;;;;;;;;4987039;28;20050;-58
2023/03/29 11:05:47;;;;;;;2.95;1.85;;;;;;;;;;4990499;28;20057;-59
2023/03/29 11:08:37;;;;;;;2.97;2.05;;;;;;;;;;4989404;28;20054;-59
2023/03/29 11:11:20;;;;;;;2.78;1.73;;;;;;;;;;4989878;28;20074;-58
2023/03/29 11:14:00;;;;;;;2.90;1.92;;;;;;;;;;4991449;28;20054;-59
2023/03/29 11:16:46;;;;;;;2.88;1.90;;;;;;;;;;4986918;28;20506;-59
2023/03/29 11:19:38;;;;;;;2.30;2.10;;;;;;;;;;4990832;28;20062;-60
2023/03/29 11:22:11;;;;;;;4.55;2.10;;;;;;;;;;4990285;28;20527;-59
2023/03/29 11:24:51;;;;;;;3.25;2.28;;;;;;;;;;4989381;28;20053;-59
2023/03/29 11:27:43;;;;;;;2.17;1.98;;;;;;;;;;4975739;28;20047;-58
2023/03/29 11:30:23;;;;;;;2.17;1.70;;;;;;;;;;4942129;28;20055;-61
2023/03/29 11:32:54;;;;;;;4.00;2.35;;;;;;;;;;4946181;28;20438;-61
2023/03/29 11:35:42;;;;;;;3.38;2.10;;;;;;;;;;4947079;28;20065;-61
2023/03/29 11:38:22;;;;;;;3.53;2.40;;;;;;;;;;4957082;28;20110;-61
2023/03/29 11:40:56;;;;;;;2.63;1.88;;;;;;;;;;4967087;28;20055;-61
2023/03/29 11:43:26;;;;;;;2.58;2.20;;;;;;;;;;4960184;28;20194;-61
2023/03/29 11:45:56;;;;;;;3.03;2.25;;;;;;;;;;4949684;28;20054;-61
2023/03/29 11:48:39;;;;;;;3.42;1.58;;;;;;;;;;4962281;28;20078;-61
2023/03/29 11:51:25;;;;;;;1.75;1.38;;;;;;;;;;4953846;28;20112;-61
2023/03/29 11:54:02;;;;;;;2.42;1.38;;;;;;;;;;4952343;28;20059;-61
2023/03/29 11:56:36;;;;;;;2.00;1.50;;;;;;;;;;4957684;28;20049;-61
2023/03/29 11:59:16;;;;;;;1.27;1.13;;;;;;;;;;4957186;28;20061;-61
2023/03/29 12:01:49;;;;;;;1.20;1.10;;;;;;;;;;4953180;28;20507;-61
2023/03/29 12:04:30;;;;;;;1.42;1.20;;;;;;;;;;4955866;28;20084;-62
2023/03/29 12:07:19;;;;;;;1.17;1.08;;;;;;;;;;4962322;28;20054;-61
2023/03/29 12:09:58;;;;;;;1.52;1.40;;;;;;;;;;4963330;28;20059;-61
2023/03/29 12:12:42;;;;;;;1.90;1.60;;;;;;;;;;4960437;28;20051;-61
2023/03/29 12:15:26;;;;;;;1.60;1.50;;;;;;;;;;4955900;28;20047;-61
2023/03/29 12:17:59;;;;;;;2.70;1.80;;;;;;;;;;4961078;28;20051;-61
2023/03/29 12:20:38;;;;;;;1.40;1.30;;;;;;;;;;4948738;28;20370;-61
2023/03/29 12:23:06;;;;;;;2.35;1.70;;;;;;;;;;4962370;28;20055;-61
2023/03/29 12:25:44;;;;;;;1.83;1.60;;;;;;;;;;4954741;28;20059;-61
2023/03/29 12:28:24;;;;;;;1.88;1.70;;;;;;;;;;4966739;28;20527;-61
2023/03/29 12:31:14;;;;;;;6.18;1.98;;;;;;;;;;4968623;28;20107;-61
2023/03/29 12:33:50;;;;;;;3.28;1.25;;;;;;;;;;4973001;28;20141;-61
2023/03/29 12:36:36;;;;;;;3.28;1.80;;;;;;;;;;4970209;28;20082;-62
2023/03/29 12:39:04;;;;;;;1.63;1.50;;;;;;;;;;4966447;28;20133;-61
2023/03/29 12:41:40;;;;;;;2.05;1.60;;;;;;;;;;4970501;28;20519;-61
2023/03/29 12:44:11;;;;;;;2.05;1.70;;;;;;;;;;4970082;28;20110;-61
2023/03/29 12:46:46;;;;;;;3.22;1.63;;;;;;;;;;4971501;28;20069;-62
2023/03/29 12:49:13;;;;;;;;;;;;;;;;;;4971365;28;20068;-61
2023/03/29 12:51:42;;;;;;;1.80;1.67;;;;;;;;;;4972159;28;19945;-61
2023/03/29 12:54:19;;;;;;;5.53;1.70;;;;;;;;;;4952785;28;20059;-53
2023/03/29 12:56:52;;;;;;;2.60;1.60;;;;;;;;;;4969566;28;20110;-55
2023/03/29 12:59:45;;;;;;;3.15;1.65;;;;;;;;;;4973562;28;20047;-54
2023/03/29 13:02:12;;;;;;;1.98;1.70;;;;;;;;;;4972754;28;20046;-59
2023/03/29 13:04:51;;;;;;;1.95;1.63;;;;;;;;;;4967448;28;20052;-53
2023/03/29 13:07:22;;;;;;;2.03;1.33;;;;;;;;;;4966923;28;20421;-56
2023/03/29 13:10:07;;;;;;;1.90;1.50;;;;;;;;;;4971549;28;20051;-61
2023/03/29 13:12:34;;;;;;;1.25;1.13;;;;;;;;;;4968700;28;20055;-59
2023/03/29 13:15:15;;;;;;;3.00;1.80;;;;;;;;;;4969431;28;20085;-61
2023/03/29 13:17:49;;;;;;;2.03;1.42;;;;;;;;;;4972693;28;20050;-58
2023/03/29 13:20:46;;;;;;;2.08;1.50;;;;;;;;;;4970295;28;20513;-60
2023/03/29 13:23:27;;;;;;;1.40;1.30;;;;;;;;;;4964599;28;20146;-59
2023/03/29 13:26:01;;;;;;;2.30;1.50;;;;;;;;;;4976721;28;20117;-60
2023/03/29 13:28:28;;;;;;;;;;;;;;;;;;4987162;28;20058;-63
2023/03/29 13:31:06;;;;;;;3.72;1.80;;;;;;;;;;4990509;28;20016;-63
2023/03/29 13:33:57;;;;;;;2.97;1.55;;;;;;;;;;4991410;28;20054;-64
2023/03/29 13:36:27;;;;;;;4.13;1.30;;;;;;;;;;4993485;28;20058;-64
2023/03/29 13:39:01;;;;;;;2.35;1.40;;;;;;;;;;4987868;28;20060;-64
2023/03/29 13:41:32;;;;;;;2.65;1.40;;;;;;;;;;4992950;28;20050;-64
2023/03/29 13:44:21;;;;;;;1.20;1.10;;;;;;;;;;4993914;28;20046;-63
2023/03/29 13:47:12;;;;;;;4.07;2.05;;;;;;;;;;4992272;28;20494;-63
2023/03/29 13:49:52;;;;;;;2.40;1.63;;;;;;;;;;4989578;28;20150;-63
2023/03/29 13:52:32;;;;;;;2.10;1.50;;;;;;;;;;4990526;28;20145;-63
2023/03/29 13:55:13;;;;;;;2.97;1.60;;;;;;;;;;4986808;28;20081;-64
2023/03/29 13:57:53;;;;;;;1.85;1.67;;;;;;;;;;4988390;28;20631;-63
2023/03/29 14:00:41;;;;;;;2.72;1.60;;;;;;;;;;4988287;28;20110;-63
2023/03/29 14:03:40;;;;;;;2.10;1.80;;;;;;;;;;4989593;28;20460;-60
2023/03/29 14:06:10;;;;;;;2.35;1.35;;;;;;;;;;4988165;28;20066;-60
2023/03/29 14:08:44;;;;;;;1.75;1.38;;;;;;;;;;4991894;28;20105;-59
2023/03/29 14:11:25;;;;;;;2.17;1.70;;;;;;;;;;4990241;28;20088;-58
2023/03/29 14:14:00;;;;;;;2.00;1.60;;;;;;;;;;4987572;28;20060;-59
2023/03/29 14:16:38;;;;;;;1.73;1.42;;;;;;;;;;4987243;28;20438;-57
2023/03/29 14:19:17;;;;;;;1.55;1.38;;;;;;;;;;4985359;28;20070;-60
2023/03/29 14:21:44;;;;;;;1.90;1.58;;;;;;;;;;4989525;28;20077;-60
2023/03/29 14:24:16;;;;;;;1.73;1.58;;;;;;;;;;4984114;28;20054;-60
2023/03/29 14:26:56;;;;;;;1.80;1.50;;;;;;;;;;4984283;28;20429;-60
2023/03/29 14:29:29;;;;;;;2.30;1.73;;;;;;;;;;4973109;28;20054;-61
2023/03/29 14:32:16;;;;;;;3.05;1.65;;;;;;;;;;4965299;28;20057;-59
2023/03/29 14:34:47;;;;;;;1.85;1.50;;;;;;;;;;4960634;28;20061;-60
2023/03/29 14:37:22;;;;;;;2.00;1.38;;;;;;;;;;4967850;28;20060;-54
2023/03/29 14:39:57;;;;;;;2.05;1.45;;;;;;;;;;4969739;28;20101;-56
2023/03/29 14:42:26;;;;;;;2.10;1.30;;;;;;;;;;4967113;28;20179;-56
2023/03/29 14:45:04;;;;;;;2.15;1.80;;;;;;;;;;4961426;28;20061;-56
2023/03/29 14:47:32;;;;;;;2.20;1.50;;;;;;;;;;4970231;28;20086;-61
2023/03/29 14:50:06;;;;;;;2.35;1.60;;;;;;;;;;4968343;28;20113;-62
2023/03/29 14:52:34;;;;;;;2.83;1.52;;;;;;;;;;4967610;28;20054;-63
2023/03/29 14:55:09;;;;;;;2.08;1.63;;;;;;;;;;4968955;28;20146;-62
2023/03/29 14:57:37;;;;;;;3.58;1.77;;;;;;;;;;4975696;28;20534;-50
2023/03/29 15:00:16;;;;;;;2.13;1.70;;;;;;;;;;4965935;28;20125;-59
2023/03/29 15:02:53;;;;;;;2.70;1.85;;;;;;;;;;4968886;28;20058;-60
2023/03/29 15:05:32;;;;;;;3.58;1.77;;;;;;;;;;4973430;28;20514;-61
2023/03/29 15:08:09;;;;;;;2.53;1.73;;;;;;;;;;4971933;28;20515;-54
2023/03/29 15:10:37;;;;;;;3.55;2.00;;;;;;;;;;4968422;28;20507;-58
2023/03/29 15:13:15;;;;;;;2.70;1.85;;;;;;;;;;4972290;28;20529;-55
2023/03/29 15:15:42;;;;;;;2.10;1.55;;;;;;;;;;4975551;28;20422;-62
2023/03/29 15:18:16;;;;;;;3.35;1.95;;;;;;;;;;4972026;28;20049;-70
2023/03/29 15:20:43;;;;;;;;;;;;;;;;;;4977767;28;20081;-70
2023/03/29 15:23:14;;;;;;;2.00;1.60;;;;;;;;;;4952231;28;19930;-70